createdAt,value
2018-09-10T00:00:49.423Z,16.86
2018-09-10T00:02:24.960Z,16.86
2018-09-10T00:04:00.480Z,16.80
2018-09-10T00:05:36.051Z,16.86
2018-09-10T00:07:11.575Z,16.80
2018-09-10T00:08:49.732Z,16.82
2018-09-10T00:10:25.236Z,16.81
2018-09-10T00:12:00.755Z,16.91
2018-09-10T00:13:36.275Z,17.00
2018-09-10T00:15:11.745Z,16.87
2018-09-10T00:16:47.304Z,16.90
2018-09-10T00:18:22.800Z,16.76
2018-09-10T00:19:58.521Z,16.76
2018-09-10T00:21:34.058Z,16.67
2018-09-10T00:23:09.583Z,16.36
2018-09-10T00:24:51.380Z,16.59
2018-09-10T00:26:26.902Z,16.66
2018-09-10T00:28:02.385Z,16.65
2018-09-10T00:29:37.946Z,16.61
2018-09-10T00:31:14.549Z,16.59
2018-09-10T00:32:50.112Z,16.57
2018-09-10T00:34:25.662Z,16.53
2018-09-10T00:36:01.224Z,16.49
2018-09-10T00:37:36.853Z,16.36
2018-09-10T00:39:14.271Z,16.38
2018-09-10T00:40:49.770Z,16.29
2018-09-10T00:42:25.332Z,16.46
2018-09-10T00:44:00.848Z,16.52
2018-09-10T00:45:36.396Z,16.47
2018-09-10T00:47:11.927Z,16.49
2018-09-10T00:48:47.509Z,16.51
2018-09-10T00:50:23.000Z,16.27
2018-09-10T00:51:58.540Z,16.34
2018-09-10T00:53:34.168Z,16.34
2018-09-10T00:55:09.746Z,16.21
2018-09-10T00:56:45.362Z,16.26
2018-09-10T00:58:20.938Z,16.34
2018-09-10T00:59:56.449Z,16.35
2018-09-10T01:01:31.991Z,16.15
2018-09-10T01:03:08.056Z,16.10
2018-09-10T01:04:43.554Z,16.08
2018-09-10T01:06:19.117Z,16.15
2018-09-10T01:07:54.661Z,16.26
2018-09-10T01:09:31.229Z,16.09
2018-09-10T01:11:06.773Z,16.00
2018-09-10T01:12:42.350Z,16.08
2018-09-10T01:14:17.984Z,16.14
2018-09-10T01:15:53.498Z,15.96
2018-09-10T01:17:29.079Z,16.04
2018-09-10T01:19:04.585Z,15.89
2018-09-10T01:20:40.249Z,16.15
2018-09-10T01:22:15.764Z,16.02
2018-09-10T01:23:51.350Z,16.07
2018-09-10T01:25:27.190Z,15.94
2018-09-10T01:27:02.757Z,16.02
2018-09-10T01:28:38.287Z,15.99
2018-09-10T01:30:13.801Z,15.94
2018-09-10T01:31:49.486Z,15.99
2018-09-10T01:33:30.379Z,16.11
2018-09-10T01:35:07.180Z,16.07
2018-09-10T01:36:42.687Z,16.05
2018-09-10T01:38:18.257Z,16.06
2018-09-10T01:39:53.764Z,16.13
2018-09-10T01:41:29.296Z,16.13
2018-09-10T01:43:04.849Z,16.09
2018-09-10T01:44:40.438Z,16.04
2018-09-10T01:46:16.056Z,16.07
2018-09-10T01:47:51.586Z,16.08
2018-09-10T01:49:27.277Z,16.02
2018-09-10T01:51:02.747Z,15.91
2018-09-10T01:52:38.288Z,15.99
2018-09-10T01:54:13.829Z,15.96
2018-09-10T01:55:49.367Z,15.93
2018-09-10T01:57:25.007Z,16.03
2018-09-10T01:59:00.568Z,16.07
2018-09-10T02:00:36.109Z,16.06
2018-09-10T02:02:11.641Z,16.04
2018-09-10T02:03:47.183Z,15.99
2018-09-10T02:05:22.753Z,15.83
2018-09-10T02:06:58.261Z,15.85
2018-09-10T02:08:33.771Z,15.84
2018-09-10T02:10:09.283Z,15.79
2018-09-10T02:11:45.297Z,15.74
2018-09-10T02:13:20.781Z,15.74
2018-09-10T02:14:56.849Z,15.70
2018-09-10T02:16:32.414Z,15.63
2018-09-10T02:18:07.964Z,15.60
2018-09-10T02:19:43.464Z,15.69
2018-09-10T02:21:18.989Z,15.60
2018-09-10T02:22:54.519Z,15.54
2018-09-10T02:24:31.120Z,15.46
2018-09-10T02:26:06.664Z,15.48
2018-09-10T02:27:42.200Z,15.52
2018-09-10T02:29:17.753Z,15.55
2018-09-10T02:30:53.245Z,15.40
2018-09-10T02:32:28.788Z,15.36
2018-09-10T02:34:04.345Z,15.42
2018-09-10T02:35:39.904Z,15.45
2018-09-10T02:37:15.386Z,15.45
2018-09-10T02:38:50.898Z,15.53
2018-09-10T02:40:26.397Z,15.45
2018-09-10T02:42:01.998Z,15.43
2018-09-10T02:43:37.517Z,15.36
2018-09-10T02:45:13.031Z,15.39
2018-09-10T02:46:48.558Z,15.50
2018-09-10T02:48:24.050Z,15.49
2018-09-10T02:49:59.658Z,15.27
2018-09-10T02:51:35.405Z,15.19
2018-09-10T02:53:10.887Z,15.27
2018-09-10T02:54:46.484Z,15.31
2018-09-10T02:56:21.994Z,15.24
2018-09-10T02:57:57.526Z,15.27
2018-09-10T02:59:33.332Z,15.28
2018-09-10T03:01:08.809Z,15.28
2018-09-10T03:02:44.301Z,15.29
2018-09-10T03:04:20.930Z,15.35
2018-09-10T03:05:56.460Z,15.29
2018-09-10T03:07:31.999Z,15.37
2018-09-10T03:09:08.370Z,15.25
2018-09-10T03:10:43.937Z,15.15
2018-09-10T03:12:19.616Z,15.14
2018-09-10T03:13:55.140Z,15.10
2018-09-10T03:15:30.764Z,15.12
2018-09-10T03:17:06.279Z,15.14
2018-09-10T03:18:41.788Z,15.12
2018-09-10T03:20:17.358Z,15.08
2018-09-10T03:21:54.019Z,15.12
2018-09-10T03:23:29.593Z,15.11
2018-09-10T03:25:05.077Z,15.09
2018-09-10T03:26:40.680Z,15.15
2018-09-10T03:28:16.180Z,15.14
2018-09-10T03:29:51.685Z,15.17
2018-09-10T03:31:27.215Z,15.15
2018-09-10T03:33:02.721Z,15.10
2018-09-10T03:34:38.214Z,15.05
2018-09-10T03:36:13.875Z,14.96
2018-09-10T03:37:49.390Z,14.94
2018-09-10T03:39:25.182Z,14.85
2018-09-10T03:41:00.708Z,14.50
2018-09-10T03:42:36.254Z,14.00
2018-09-10T03:44:11.742Z,14.79
2018-09-10T03:45:47.284Z,14.77
2018-09-10T03:47:22.892Z,14.88
2018-09-10T03:48:58.431Z,14.93
2018-09-10T03:50:34.010Z,14.96
2018-09-10T03:52:09.566Z,14.93
2018-09-10T03:53:45.080Z,14.96
2018-09-10T03:55:20.610Z,14.93
2018-09-10T03:56:56.157Z,14.96
2018-09-10T03:58:31.727Z,14.77
2018-09-10T04:00:07.365Z,14.72
2018-09-10T04:01:43.109Z,14.74
2018-09-10T04:03:18.804Z,14.83
2018-09-10T04:04:54.423Z,14.94
2018-09-10T04:06:29.954Z,15.02
2018-09-10T04:08:05.479Z,14.97
2018-09-10T04:09:41.072Z,14.96
2018-09-10T04:11:16.584Z,14.95
2018-09-10T04:12:52.067Z,14.94
2018-09-10T04:14:27.575Z,14.95
2018-09-10T04:16:03.080Z,15.01
2018-09-10T04:17:38.626Z,15.12
2018-09-10T04:19:14.147Z,15.16
2018-09-10T04:20:49.823Z,15.17
2018-09-10T04:22:25.327Z,15.08
2018-09-10T04:24:00.884Z,15.06
2018-09-10T04:25:36.379Z,15.10
2018-09-10T04:27:11.910Z,15.03
2018-09-10T04:28:47.383Z,15.12
2018-09-10T04:30:22.894Z,15.28
2018-09-10T04:31:58.441Z,15.38
2018-09-10T04:33:34.175Z,15.25
2018-09-10T04:35:10.182Z,15.18
2018-09-10T04:36:45.677Z,15.15
2018-09-10T04:38:21.234Z,15.03
2018-09-10T04:39:56.811Z,14.95
2018-09-10T04:41:38.494Z,14.97
2018-09-10T04:43:13.972Z,15.08
2018-09-10T04:44:49.464Z,15.05
2018-09-10T04:46:25.000Z,15.04
2018-09-10T04:48:00.513Z,15.02
2018-09-10T04:49:36.878Z,15.09
2018-09-10T04:51:12.408Z,15.20
2018-09-10T04:52:47.924Z,15.22
2018-09-10T04:54:23.458Z,15.15
2018-09-10T04:55:58.972Z,15.23
2018-09-10T04:57:34.536Z,15.24
2018-09-10T04:59:10.091Z,15.32
2018-09-10T05:00:45.748Z,15.37
2018-09-10T05:02:21.315Z,15.37
2018-09-10T05:03:56.988Z,15.38
2018-09-10T05:05:32.550Z,15.40
2018-09-10T05:07:08.257Z,15.34
2018-09-10T05:08:43.840Z,15.44
2018-09-10T05:10:19.472Z,15.52
2018-09-10T05:11:55.065Z,15.54
2018-09-10T05:13:31.046Z,15.58
2018-09-10T05:15:06.615Z,15.61
2018-09-10T05:16:42.132Z,15.79
2018-09-10T05:18:17.706Z,15.81
2018-09-10T05:19:53.246Z,15.77
2018-09-10T05:21:28.761Z,15.68
2018-09-10T05:23:04.274Z,15.68
2018-09-10T05:24:39.819Z,15.71
2018-09-10T05:26:15.473Z,15.69
2018-09-10T05:27:50.983Z,15.67
2018-09-10T05:29:26.592Z,15.16
2018-09-10T05:31:02.117Z,15.66
2018-09-10T05:32:37.659Z,15.77
2018-09-10T05:34:13.243Z,15.73
2018-09-10T05:35:48.927Z,15.65
2018-09-10T05:37:24.420Z,15.63
2018-09-10T05:38:59.926Z,15.75
2018-09-10T05:40:35.422Z,15.74
2018-09-10T05:42:11.291Z,15.68
2018-09-10T05:43:46.749Z,15.66
2018-09-10T05:45:22.257Z,15.71
2018-09-10T05:46:57.793Z,15.75
2018-09-10T05:48:33.278Z,15.72
2018-09-10T05:50:09.324Z,15.76
2018-09-10T05:51:45.443Z,15.78
2018-09-10T05:53:21.100Z,15.79
2018-09-10T05:54:56.558Z,15.90
2018-09-10T05:56:32.157Z,15.83
2018-09-10T05:58:07.758Z,15.84
2018-09-10T05:59:43.349Z,15.76
2018-09-10T06:01:18.861Z,15.81
2018-09-10T06:02:54.369Z,15.83
2018-09-10T06:04:29.885Z,15.76
2018-09-10T06:06:05.393Z,15.72
2018-09-10T06:07:40.957Z,15.84
2018-09-10T06:09:16.478Z,16.11
2018-09-10T06:10:51.994Z,16.34
2018-09-10T06:12:27.493Z,16.06
2018-09-10T06:14:03.135Z,15.91
2018-09-10T06:15:38.656Z,16.06
2018-09-10T06:17:14.269Z,16.15
2018-09-10T06:18:49.837Z,16.25
2018-09-10T06:20:25.347Z,16.39
2018-09-10T06:22:00.878Z,16.47
2018-09-10T06:23:36.359Z,16.65
2018-09-10T06:25:11.914Z,16.79
2018-09-10T06:26:47.388Z,16.84
2018-09-10T06:28:23.249Z,16.92
2018-09-10T06:29:58.758Z,17.01
2018-09-10T06:31:34.238Z,17.11
2018-09-10T06:33:09.775Z,17.23
2018-09-10T06:34:45.279Z,17.48
2018-09-10T06:36:20.805Z,17.46
2018-09-10T06:37:56.292Z,17.37
2018-09-10T06:39:31.835Z,17.56
2018-09-10T06:41:07.300Z,17.70
2018-09-10T06:42:43.188Z,17.74
2018-09-10T06:44:18.737Z,17.84
2018-09-10T06:45:54.267Z,17.94
2018-09-10T06:47:29.763Z,18.05
2018-09-10T06:49:06.281Z,18.03
2018-09-10T06:50:41.962Z,18.08
2018-09-10T06:52:17.469Z,18.12
2018-09-10T06:53:52.941Z,18.21
2018-09-10T06:55:28.526Z,18.28
2018-09-10T06:57:04.101Z,18.38
2018-09-10T06:58:39.637Z,18.42
2018-09-10T07:00:15.196Z,18.55
2018-09-10T07:01:50.707Z,18.54
2018-09-10T07:03:26.254Z,18.63
2018-09-10T07:05:01.799Z,18.81
2018-09-10T07:06:37.339Z,18.92
2018-09-10T07:08:12.881Z,18.96
2018-09-10T07:09:48.410Z,19.12
2018-09-10T07:11:23.876Z,19.21
2018-09-10T07:13:00.636Z,19.32
2018-09-10T07:14:36.089Z,19.32
2018-09-10T07:16:11.611Z,19.42
2018-09-10T07:17:47.270Z,19.48
2018-09-10T07:19:22.801Z,19.52
2018-09-10T07:20:58.287Z,19.59
2018-09-10T07:22:33.795Z,19.61
2018-09-10T07:24:09.288Z,19.65
2018-09-10T07:25:44.828Z,19.78
2018-09-10T07:27:20.543Z,19.84
2018-09-10T07:28:56.012Z,20.04
2018-09-10T07:30:31.552Z,20.10
2018-09-10T07:32:07.071Z,20.15
2018-09-10T07:33:42.684Z,20.33
2018-09-10T07:35:18.275Z,20.55
2018-09-10T07:36:53.737Z,20.69
2018-09-10T07:38:29.251Z,20.82
2018-09-10T07:40:04.796Z,21.10
2018-09-10T07:41:40.289Z,21.28
2018-09-10T07:43:15.811Z,21.54
2018-09-10T07:44:51.267Z,21.69
2018-09-10T07:46:26.727Z,21.88
2018-09-10T07:48:03.109Z,22.02
2018-09-10T07:49:38.587Z,22.05
2018-09-10T07:51:14.348Z,22.24
2018-09-10T07:52:49.867Z,22.09
2018-09-10T07:54:27.688Z,22.23
2018-09-10T07:56:03.241Z,22.27
2018-09-10T07:57:40.331Z,22.31
2018-09-10T07:59:15.817Z,22.33
2018-09-10T08:00:51.501Z,22.25
2018-09-10T08:02:27.071Z,22.24
2018-09-10T08:04:02.630Z,22.21
2018-09-10T08:05:38.135Z,22.16
2018-09-10T08:07:13.634Z,22.01
2018-09-10T08:08:49.174Z,22.20
2018-09-10T08:10:24.735Z,22.24
2018-09-10T08:12:00.202Z,22.39
2018-09-10T08:13:35.731Z,22.54
2018-09-10T08:15:11.408Z,22.63
2018-09-10T08:16:46.974Z,22.78
2018-09-10T08:18:22.488Z,22.91
2018-09-10T08:19:58.054Z,23.04
2018-09-10T08:21:33.613Z,23.22
2018-09-10T08:23:09.158Z,23.39
2018-09-10T08:24:44.669Z,23.55
2018-09-10T08:26:20.208Z,23.78
2018-09-10T08:27:55.716Z,24.01
2018-09-10T08:29:31.383Z,24.09
2018-09-10T08:31:06.929Z,24.10
2018-09-10T08:32:42.435Z,24.30
2018-09-10T08:34:17.909Z,24.45
2018-09-10T08:35:53.444Z,24.52
2018-09-10T08:37:28.962Z,24.64
2018-09-10T08:39:05.171Z,24.52
2018-09-10T08:40:40.693Z,24.67
2018-09-10T08:42:16.283Z,24.54
2018-09-10T08:43:51.937Z,24.51
2018-09-10T08:45:27.429Z,24.55
2018-09-10T08:47:02.995Z,24.55
2018-09-10T08:48:38.538Z,24.54
2018-09-10T08:50:14.067Z,24.75
2018-09-10T08:51:49.577Z,24.92
2018-09-10T08:53:25.097Z,24.96
2018-09-10T08:55:00.852Z,25.03
2018-09-10T08:56:36.169Z,25.21
2018-09-10T08:58:11.685Z,25.32
2018-09-10T08:59:47.252Z,25.38
2018-09-10T09:01:22.791Z,25.48
2018-09-10T09:02:58.332Z,25.57
2018-09-10T09:04:33.847Z,25.49
2018-09-10T09:06:09.328Z,25.49
2018-09-10T09:07:44.877Z,25.47
2018-09-10T09:09:20.355Z,25.49
2018-09-10T09:10:55.870Z,25.49
2018-09-10T09:12:31.364Z,25.13
2018-09-10T09:14:07.863Z,25.09
2018-09-10T09:15:43.472Z,25.10
2018-09-10T09:17:18.991Z,25.35
2018-09-10T09:18:54.475Z,25.52
2018-09-10T09:20:29.981Z,25.74
2018-09-10T09:22:05.523Z,25.78
2018-09-10T09:23:41.031Z,25.84
2018-09-10T09:25:16.509Z,25.73
2018-09-10T09:26:52.007Z,25.61
2018-09-10T09:28:27.523Z,25.58
2018-09-10T09:30:02.999Z,25.56
2018-09-10T09:31:38.467Z,25.59
2018-09-10T09:33:14.006Z,25.46
2018-09-10T09:34:56.101Z,25.56
2018-09-10T09:36:37.104Z,25.60
2018-09-10T09:38:18.028Z,25.62
2018-09-10T09:39:58.965Z,25.69
2018-09-10T09:41:39.773Z,25.78
2018-09-10T09:43:20.919Z,25.77
2018-09-10T09:45:01.701Z,25.91
2018-09-10T09:46:37.178Z,26.00
2018-09-10T09:48:12.653Z,26.21
2018-09-10T09:49:48.181Z,26.30
2018-09-10T09:51:23.680Z,26.34
2018-09-10T09:52:59.186Z,26.62
2018-09-10T09:54:34.657Z,26.79
2018-09-10T09:56:10.165Z,26.97
2018-09-10T09:57:45.888Z,27.14
2018-09-10T09:59:21.464Z,27.19
2018-09-10T10:01:01.137Z,26.89
2018-09-10T10:02:42.272Z,26.94
2018-09-10T10:04:17.897Z,27.07
2018-09-10T10:05:53.258Z,27.07
2018-09-10T10:07:28.845Z,26.93
2018-09-10T10:09:07.657Z,27.02
2018-09-10T10:10:43.105Z,27.02
2018-09-10T10:12:18.705Z,27.10
2018-09-10T10:13:54.186Z,27.29
2018-09-10T10:15:29.717Z,27.39
2018-09-10T10:17:05.253Z,27.45
2018-09-10T10:18:40.692Z,27.20
2018-09-10T10:20:16.265Z,27.46
2018-09-10T10:21:51.854Z,27.56
2018-09-10T10:23:27.370Z,27.46
2018-09-10T10:25:04.140Z,27.49
2018-09-10T10:26:39.648Z,27.54
2018-09-10T10:28:16.602Z,27.52
2018-09-10T10:29:52.038Z,27.68
2018-09-10T10:31:33.471Z,27.31
2018-09-10T10:33:09.307Z,27.17
2018-09-10T10:34:45.752Z,27.08
2018-09-10T10:36:21.243Z,27.15
2018-09-10T10:37:56.682Z,27.27
2018-09-10T10:39:34.799Z,27.35
2018-09-10T10:41:10.297Z,27.35
2018-09-10T10:42:46.449Z,27.39
2018-09-10T10:44:22.197Z,27.40
2018-09-10T10:45:57.718Z,27.22
2018-09-10T10:47:33.342Z,27.31
2018-09-10T10:49:08.755Z,27.35
2018-09-10T10:50:44.319Z,27.16
2018-09-10T10:52:19.869Z,27.41
2018-09-10T10:53:56.202Z,27.50
2018-09-10T10:55:33.927Z,27.58
2018-09-10T10:57:09.375Z,27.68
2018-09-10T10:58:44.866Z,27.75
2018-09-10T11:00:21.685Z,27.80
2018-09-10T11:01:57.246Z,27.70
2018-09-10T11:03:33.147Z,28.08
2018-09-10T11:05:08.635Z,28.26
2018-09-10T11:06:44.080Z,28.33
2018-09-10T11:08:20.171Z,28.27
2018-09-10T11:09:55.689Z,27.99
2018-09-10T11:11:32.744Z,28.19
2018-09-10T11:13:09.558Z,28.38
2018-09-10T11:14:45.040Z,28.57
2018-09-10T11:16:20.948Z,28.64
2018-09-10T11:17:56.669Z,28.64
2018-09-10T11:19:32.409Z,28.37
2018-09-10T11:21:07.949Z,28.31
2018-09-10T11:22:44.063Z,28.35
2018-09-10T11:24:19.554Z,28.46
2018-09-10T11:25:56.134Z,28.42
2018-09-10T11:27:31.683Z,28.21
2018-09-10T11:29:08.211Z,28.36
2018-09-10T11:30:43.711Z,28.43
2018-09-10T11:32:19.318Z,28.19
2018-09-10T11:33:55.825Z,28.10
2018-09-10T11:35:31.273Z,27.98
2018-09-10T11:37:07.079Z,27.97
2018-09-10T11:38:43.461Z,27.82
2018-09-10T11:40:18.962Z,27.83
2018-09-10T11:41:56.832Z,27.74
2018-09-10T11:43:32.371Z,27.71
2018-09-10T11:45:09.242Z,27.88
2018-09-10T11:46:44.760Z,27.89
2018-09-10T11:48:20.354Z,28.05
2018-09-10T11:49:55.891Z,28.08
2018-09-10T11:51:32.898Z,28.04
2018-09-10T11:53:08.446Z,28.05
2018-09-10T11:54:44.524Z,28.04
2018-09-10T11:56:21.028Z,28.07
2018-09-10T11:57:57.366Z,27.55
2018-09-10T11:59:34.199Z,28.08
2018-09-10T12:01:09.743Z,27.93
2018-09-10T12:02:45.204Z,27.79
2018-09-10T12:04:20.764Z,27.83
2018-09-10T12:05:56.229Z,27.82
2018-09-10T12:07:31.763Z,27.81
2018-09-10T12:09:08.699Z,27.82
2018-09-10T12:10:44.363Z,27.82
2018-09-10T12:12:21.110Z,27.79
2018-09-10T12:13:56.592Z,27.65
2018-09-10T12:15:33.536Z,27.59
2018-09-10T12:17:09.303Z,27.54
2018-09-10T12:18:44.943Z,27.46
2018-09-10T12:20:20.422Z,27.50
2018-09-10T12:21:57.027Z,27.57
2018-09-10T12:23:32.490Z,27.72
2018-09-10T12:25:08.025Z,27.77
2018-09-10T12:26:43.520Z,27.76
2018-09-10T12:28:19.353Z,27.84
2018-09-10T12:29:55.011Z,27.87
2018-09-10T12:31:30.850Z,27.94
2018-09-10T12:33:06.359Z,28.11
2018-09-10T12:34:41.941Z,28.16
2018-09-10T12:36:17.439Z,28.16
2018-09-10T12:37:54.462Z,28.26
2018-09-10T12:39:32.103Z,28.34
2018-09-10T12:41:07.681Z,28.55
2018-09-10T12:42:43.321Z,28.55
2018-09-10T12:44:18.759Z,28.57
2018-09-10T12:45:54.204Z,28.68
2018-09-10T12:47:29.709Z,28.73
2018-09-10T12:49:05.182Z,28.75
2018-09-10T12:50:40.677Z,28.90
2018-09-10T12:52:16.202Z,28.99
2018-09-10T12:53:51.694Z,29.07
2018-09-10T12:55:28.287Z,29.03
2018-09-10T12:57:03.741Z,28.74
2018-09-10T12:58:42.240Z,28.77
2018-09-10T13:00:17.774Z,28.47
2018-09-10T13:01:53.344Z,28.55
2018-09-10T13:03:28.904Z,28.93
2018-09-10T13:05:04.367Z,28.93
2018-09-10T13:06:40.024Z,28.85
2018-09-10T13:08:15.586Z,28.70
2018-09-10T13:09:51.310Z,28.55
2018-09-10T13:11:26.813Z,28.64
2018-09-10T13:13:02.543Z,28.88
2018-09-10T13:14:38.259Z,28.87
2018-09-10T13:16:13.836Z,28.97
2018-09-10T13:17:49.375Z,28.73
2018-09-10T13:19:25.887Z,28.94
2018-09-10T13:21:01.394Z,28.84
2018-09-10T13:22:36.904Z,29.32
2018-09-10T13:24:12.864Z,29.45
2018-09-10T13:25:48.329Z,29.58
2018-09-10T13:27:23.818Z,29.72
2018-09-10T13:28:59.473Z,29.80
2018-09-10T13:30:34.923Z,29.84
2018-09-10T13:32:10.533Z,30.05
2018-09-10T13:33:46.004Z,30.05
2018-09-10T13:35:21.478Z,30.43
2018-09-10T13:36:56.994Z,30.61
2018-09-10T13:38:32.449Z,30.56
2018-09-10T13:40:07.916Z,30.61
2018-09-10T13:41:43.437Z,30.49
2018-09-10T13:43:18.938Z,30.29
2018-09-10T13:44:54.460Z,30.37
2018-09-10T13:46:29.900Z,30.58
2018-09-10T13:48:05.444Z,30.25
2018-09-10T13:49:40.988Z,30.42
2018-09-10T13:51:17.235Z,30.43
2018-09-10T13:52:52.775Z,30.49
2018-09-10T13:54:28.343Z,30.46
2018-09-10T13:56:03.870Z,30.08
2018-09-10T13:57:39.333Z,30.15
2018-09-10T13:59:14.852Z,30.66
2018-09-10T14:00:50.592Z,30.80
2018-09-10T14:02:26.182Z,30.49
2018-09-10T14:04:01.660Z,30.41
2018-09-10T14:05:37.629Z,30.53
2018-09-10T14:07:13.218Z,30.67
2018-09-10T14:08:48.830Z,30.82
2018-09-10T14:10:24.306Z,30.85
2018-09-10T14:11:59.802Z,30.73
2018-09-10T14:13:35.395Z,30.48
2018-09-10T14:15:10.926Z,30.40
2018-09-10T14:16:46.603Z,30.22
2018-09-10T14:18:22.255Z,29.98
2018-09-10T14:19:57.730Z,29.79
2018-09-10T14:21:33.246Z,29.64
2018-09-10T14:23:08.833Z,29.58
2018-09-10T14:24:46.352Z,29.58
2018-09-10T14:26:21.867Z,29.65
2018-09-10T14:27:57.465Z,29.68
2018-09-10T14:29:33.104Z,29.44
2018-09-10T14:31:08.930Z,29.96
2018-09-10T14:32:44.404Z,30.04
2018-09-10T14:34:20.982Z,30.09
2018-09-10T14:35:56.454Z,29.96
2018-09-10T14:37:31.917Z,29.91
2018-09-10T14:39:07.828Z,29.71
2018-09-10T14:40:43.306Z,29.89
2018-09-10T14:42:18.860Z,29.73
2018-09-10T14:43:54.333Z,29.80
2018-09-10T14:45:29.954Z,29.75
2018-09-10T14:47:05.813Z,29.55
2018-09-10T14:48:41.301Z,29.39
2018-09-10T14:50:16.828Z,29.44
2018-09-10T14:51:52.628Z,29.41
2018-09-10T14:53:28.111Z,29.35
2018-09-10T14:55:03.826Z,29.18
2018-09-10T14:56:39.307Z,29.15
2018-09-10T14:58:14.859Z,29.07
2018-09-10T14:59:50.368Z,29.11
2018-09-10T15:01:25.932Z,28.99
2018-09-10T15:03:01.430Z,28.75
2018-09-10T15:04:36.878Z,28.80
2018-09-10T15:06:12.399Z,28.84
2018-09-10T15:07:47.908Z,28.80
2018-09-10T15:09:23.419Z,28.61
2018-09-10T15:10:58.969Z,28.66
2018-09-10T15:12:34.465Z,28.56
2018-09-10T15:14:10.063Z,28.39
2018-09-10T15:15:45.547Z,28.22
2018-09-10T15:17:21.090Z,28.28
2018-09-10T15:18:56.758Z,28.42
2018-09-10T15:20:32.090Z,28.47
2018-09-10T15:22:07.591Z,28.50
2018-09-10T15:23:43.644Z,28.23
2018-09-10T15:25:19.390Z,28.26
2018-09-10T15:26:54.897Z,28.30
2018-09-10T15:28:30.379Z,28.14
2018-09-10T15:30:05.903Z,28.21
2018-09-10T15:31:41.399Z,28.09
2018-09-10T15:33:16.915Z,28.10
2018-09-10T15:34:52.443Z,28.16
2018-09-10T15:36:27.923Z,28.17
2018-09-10T15:38:03.844Z,28.13
2018-09-10T15:39:39.321Z,28.07
2018-09-10T15:41:14.862Z,27.99
2018-09-10T15:42:50.373Z,28.15
2018-09-10T15:44:25.843Z,28.36
2018-09-10T15:46:01.361Z,28.22
2018-09-10T15:47:37.211Z,28.27
2018-09-10T15:49:12.765Z,28.36
2018-09-10T15:50:48.324Z,28.39
2018-09-10T15:52:30.624Z,28.41
2018-09-10T15:54:06.795Z,28.34
2018-09-10T15:55:43.350Z,28.27
2018-09-10T15:57:18.962Z,28.16
2018-09-10T15:58:54.753Z,28.04
2018-09-10T16:00:30.313Z,27.90
2018-09-10T16:02:06.418Z,27.92
2018-09-10T16:03:41.907Z,27.66
2018-09-10T16:05:17.431Z,27.72
2018-09-10T16:06:52.927Z,27.66
2018-09-10T16:08:28.419Z,27.75
2018-09-10T16:10:04.074Z,27.90
2018-09-10T16:11:39.570Z,28.03
2018-09-10T16:14:56.723Z,27.85
2018-09-10T16:16:32.254Z,27.90
2018-09-10T16:18:07.802Z,27.91
2018-09-10T16:19:43.311Z,27.74
2018-09-10T16:21:19.061Z,27.52
2018-09-10T16:22:54.619Z,27.32
2018-09-10T16:24:30.118Z,27.23
2018-09-10T16:26:05.678Z,27.13
2018-09-10T16:27:41.152Z,26.94
2018-09-10T16:29:16.655Z,26.81
2018-09-10T16:30:52.283Z,26.92
2018-09-10T16:32:27.825Z,26.90
2018-09-10T16:34:03.394Z,27.01
2018-09-10T16:35:38.898Z,26.85
2018-09-10T16:37:14.527Z,26.75
2018-09-10T16:38:50.422Z,26.57
2018-09-10T16:40:25.937Z,26.44
2018-09-10T16:42:01.469Z,26.48
2018-09-10T16:43:36.972Z,26.43
2018-09-10T16:45:13.760Z,26.35
2018-09-10T16:46:49.265Z,26.34
2018-09-10T16:48:24.767Z,26.24
2018-09-10T16:50:00.219Z,26.12
2018-09-10T16:51:35.827Z,25.99
2018-09-10T16:53:11.364Z,25.80
2018-09-10T16:54:46.910Z,25.68
2018-09-10T16:56:22.370Z,25.53
2018-09-10T16:57:57.901Z,25.57
2018-09-10T16:59:33.833Z,25.61
2018-09-10T17:01:09.398Z,25.59
2018-09-10T17:02:44.860Z,25.49
2018-09-10T17:04:20.369Z,25.60
2018-09-10T17:05:55.843Z,25.60
2018-09-10T17:07:31.821Z,25.72
2018-09-10T17:09:07.664Z,25.62
2018-09-10T17:10:44.065Z,25.76
2018-09-10T17:12:19.604Z,25.69
2018-09-10T17:13:56.381Z,25.72
2018-09-10T17:15:32.771Z,25.75
2018-09-10T17:17:09.245Z,25.70
2018-09-10T17:18:44.733Z,25.57
2018-09-10T17:20:20.237Z,25.46
2018-09-10T17:21:55.909Z,25.30
2018-09-10T17:23:31.465Z,25.32
2018-09-10T17:25:07.053Z,25.30
2018-09-10T17:26:42.832Z,25.34
2018-09-10T17:28:18.471Z,25.30
2018-09-10T17:29:54.525Z,25.24
2018-09-10T17:31:30.521Z,25.13
2018-09-10T17:33:06.118Z,24.91
2018-09-10T17:34:41.908Z,24.81
2018-09-10T17:36:17.788Z,24.64
2018-09-10T17:37:53.452Z,24.52
2018-09-10T17:39:29.003Z,24.39
2018-09-10T17:41:04.832Z,24.43
2018-09-10T17:42:40.477Z,24.36
2018-09-10T17:44:16.056Z,24.40
2018-09-10T17:45:51.596Z,24.34
2018-09-10T17:47:27.297Z,24.26
2018-09-10T17:49:02.942Z,24.35
2018-09-10T17:50:38.498Z,24.32
2018-09-10T17:52:14.053Z,24.21
2018-09-10T17:53:49.540Z,24.31
2018-09-10T17:55:25.102Z,24.38
2018-09-10T17:57:00.602Z,24.40
2018-09-10T17:58:36.156Z,24.32
2018-09-10T18:00:13.008Z,24.38
2018-09-10T18:01:48.544Z,24.41
2018-09-10T18:03:24.227Z,24.43
2018-09-10T18:04:59.945Z,24.48
2018-09-10T18:06:35.476Z,24.50
2018-09-10T18:08:10.976Z,24.43
2018-09-10T18:09:46.508Z,24.37
2018-09-10T18:11:22.209Z,24.30
2018-09-10T18:12:57.777Z,24.16
2018-09-10T18:14:40.389Z,24.25
2018-09-10T18:16:15.885Z,24.28
2018-09-10T18:17:51.406Z,24.26
2018-09-10T18:19:26.906Z,24.28
2018-09-10T18:21:02.496Z,24.26
2018-09-10T18:22:38.047Z,24.26
2018-09-10T18:24:13.535Z,24.19
2018-09-10T18:25:49.026Z,24.22
2018-09-10T18:27:24.561Z,24.16
2018-09-10T18:29:00.364Z,24.14
2018-09-10T18:30:35.937Z,24.03
2018-09-10T18:32:11.530Z,24.00
2018-09-10T18:33:47.204Z,24.07
2018-09-10T18:35:23.391Z,24.13
2018-09-10T18:36:58.881Z,24.13
2018-09-10T18:38:34.395Z,24.19
2018-09-10T18:40:09.997Z,24.17
2018-09-10T18:43:35.398Z,24.02
2018-09-10T18:45:10.993Z,24.11
2018-09-10T18:46:46.499Z,24.01
2018-09-10T18:48:22.014Z,24.06
2018-09-10T18:49:57.515Z,24.12
2018-09-10T18:51:33.053Z,24.16
2018-09-10T18:53:08.574Z,24.08
2018-09-10T18:54:44.217Z,24.11
2018-09-10T18:56:19.766Z,24.20
2018-09-10T18:57:55.336Z,24.15
2018-09-10T18:59:30.849Z,24.09
2018-09-10T19:01:06.578Z,23.81
2018-09-10T19:02:41.954Z,23.76
2018-09-10T19:04:17.467Z,23.68
2018-09-10T19:05:52.995Z,23.71
2018-09-10T19:07:28.542Z,23.73
2018-09-10T19:09:05.126Z,23.68
2018-09-10T19:10:40.649Z,23.66
2018-09-10T19:12:16.187Z,23.71
2018-09-10T19:13:51.794Z,23.60
2018-09-10T19:15:27.362Z,23.34
2018-09-10T19:17:02.881Z,23.43
2018-09-10T19:18:40.510Z,23.68
2018-09-10T19:20:16.102Z,23.70
2018-09-10T19:21:51.651Z,23.60
2018-09-10T19:23:27.173Z,23.62
2018-09-10T19:25:02.654Z,23.59
2018-09-10T19:26:38.198Z,23.62
2018-09-10T19:28:13.883Z,23.56
2018-09-10T19:29:49.358Z,23.58
2018-09-10T19:31:24.922Z,23.59
2018-09-10T19:33:00.592Z,23.58
2018-09-10T19:34:36.122Z,23.60
2018-09-10T19:36:11.663Z,23.56
2018-09-10T19:37:47.225Z,23.56
2018-09-10T19:39:23.123Z,23.53
2018-09-10T19:40:58.717Z,23.47
2018-09-10T19:42:34.242Z,23.44
2018-09-10T19:44:09.871Z,23.45
2018-09-10T19:45:45.365Z,23.41
2018-09-10T19:47:20.956Z,23.35
2018-09-10T19:48:56.616Z,23.25
2018-09-10T19:50:38.778Z,23.35
2018-09-10T19:52:14.280Z,23.45
2018-09-10T19:53:49.739Z,23.12
2018-09-10T19:55:25.293Z,23.13
2018-09-10T19:57:00.800Z,23.21
2018-09-10T19:58:36.351Z,23.28
2018-09-10T20:00:11.828Z,23.35
2018-09-10T20:01:47.338Z,23.52
2018-09-10T20:03:23.042Z,23.64
2018-09-10T20:04:58.580Z,23.33
2018-09-10T20:06:34.301Z,23.32
2018-09-10T20:08:09.797Z,23.21
2018-09-10T20:09:45.418Z,23.12
2018-09-10T20:11:20.930Z,23.21
2018-09-10T20:12:56.461Z,23.18
2018-09-10T20:14:31.998Z,23.08
2018-09-10T20:16:07.560Z,23.10
2018-09-10T20:17:43.110Z,23.23
2018-09-10T20:19:18.700Z,23.22
2018-09-10T20:20:54.585Z,23.00
2018-09-10T20:22:30.300Z,23.22
2018-09-10T20:24:05.850Z,23.27
2018-09-10T20:25:41.726Z,23.28
2018-09-10T20:27:17.273Z,23.00
2018-09-10T20:28:52.835Z,23.05
2018-09-10T20:30:28.414Z,23.19
2018-09-10T20:32:04.012Z,23.06
2018-09-10T20:33:44.860Z,23.29
2018-09-10T20:35:20.543Z,22.98
2018-09-10T20:36:56.053Z,22.80